Time;durP1;ratioP1;P1;durP2;ratioP2;P2;SDS_P1;SDS_P2;PMS_P1;PMS_P2;Temp;Humidity;BMP_temperature;BMP_pressure;BME280_temperature;BME280_humidity;BME280_pressure;Samples;Min_cycle;Max_cycle;Signal;HPM_P1;HPM_P2
2023/09/26 00:01:05;;;;;;;3.63;3.42;;;;;;;;;;5052688;28;20196;-75
2023/09/26 00:03:31;;;;;;;4.75;3.70;;;;;;;;;;5051941;28;20661;-75
2023/09/26 00:05:58;;;;;;;3.80;3.05;;;;;;;;;;5052041;28;20307;-75
2023/09/26 00:08:24;;;;;;;3.85;3.38;;;;;;;;;;5051884;28;20201;-75
2023/09/26 00:10:50;;;;;;;3.95;3.65;;;;;;;;;;5052134;28;20288;-75
2023/09/26 00:13:18;;;;;;;3.40;3.30;;;;;;;;;;5051950;28;20382;-75
2023/09/26 00:15:45;;;;;;;4.43;4.13;;;;;;;;;;5051543;28;20223;-75
2023/09/26 00:18:11;;;;;;;3.97;3.67;;;;;;;;;;5051697;28;20202;-75
2023/09/26 00:20:39;;;;;;;5.30;3.78;;;;;;;;;;5052122;28;20295;-75
2023/09/26 00:23:06;;;;;;;5.45;3.75;;;;;;;;;;5051932;28;20201;-75
2023/09/26 00:25:33;;;;;;;4.68;3.60;;;;;;;;;;5051768;28;20222;-75
2023/09/26 00:27:59;;;;;;;4.45;3.75;;;;;;;;;;5051494;28;20595;-75
2023/09/26 00:30:27;;;;;;;3.97;3.70;;;;;;;;;;5051667;28;20220;-75
2023/09/26 00:32:53;;;;;;;3.95;3.60;;;;;;;;;;5051831;28;20221;-75
2023/09/26 00:35:19;;;;;;;4.22;3.78;;;;;;;;;;5051908;28;20233;-75
2023/09/26 00:37:48;;;;;;;3.67;3.42;;;;;;;;;;5051521;28;20208;-75
2023/09/26 00:40:16;;;;;;;3.65;3.35;;;;;;;;;;5051564;28;20197;-75
2023/09/26 00:42:42;;;;;;;3.40;3.10;;;;;;;;;;5051584;28;20208;-75
2023/09/26 00:45:09;;;;;;;3.38;3.28;;;;;;;;;;5053514;28;20225;-75
2023/09/26 00:47:37;;;;;;;3.40;3.30;;;;;;;;;;5051422;28;20314;-75
2023/09/26 00:50:05;;;;;;;4.00;3.70;;;;;;;;;;5052067;28;20236;-75
2023/09/26 00:52:31;;;;;;;3.67;3.47;;;;;;;;;;5051516;28;20201;-75
2023/09/26 00:54:58;;;;;;;3.75;3.55;;;;;;;;;;5051316;28;20208;-75
2023/09/26 00:57:24;;;;;;;5.10;3.92;;;;;;;;;;5051303;28;20227;-75
2023/09/26 00:59:50;;;;;;;3.47;3.38;;;;;;;;;;5051474;28;20292;-75
2023/09/26 01:02:17;;;;;;;4.18;3.88;;;;;;;;;;5052863;28;20583;-75
2023/09/26 01:04:44;;;;;;;4.40;4.00;;;;;;;;;;5055554;28;20201;-75
2023/09/26 01:07:10;;;;;;;4.35;3.72;;;;;;;;;;5055396;28;20205;-75
2023/09/26 01:09:37;;;;;;;4.30;4.00;;;;;;;;;;5055200;28;20209;-75
2023/09/26 01:12:04;;;;;;;4.07;3.88;;;;;;;;;;5055344;28;20201;-75
2023/09/26 01:14:31;;;;;;;4.05;3.65;;;;;;;;;;5055646;28;20221;-75
2023/09/26 01:16:57;;;;;;;4.45;4.07;;;;;;;;;;5055239;28;20228;-75
2023/09/26 01:19:23;;;;;;;4.97;4.55;;;;;;;;;;5054848;28;20221;-75
2023/09/26 01:21:51;;;;;;;4.10;3.90;;;;;;;;;;5055136;28;20661;-75
2023/09/26 01:24:19;;;;;;;4.47;4.18;;;;;;;;;;5054975;28;20205;-75
2023/09/26 01:26:45;;;;;;;4.47;4.18;;;;;;;;;;5054719;28;20225;-75
2023/09/26 01:29:11;;;;;;;6.30;4.50;;;;;;;;;;5054677;28;20204;-74
2023/09/26 01:31:38;;;;;;;4.75;4.35;;;;;;;;;;5055047;28;20204;-74
2023/09/26 01:34:04;;;;;;;4.13;3.92;;;;;;;;;;5055242;28;20614;-74
2023/09/26 01:36:31;;;;;;;4.60;4.30;;;;;;;;;;5054930;28;20232;-74
2023/09/26 01:38:58;;;;;;;4.78;4.30;;;;;;;;;;5054564;28;20553;-74
2023/09/26 01:41:25;;;;;;;4.22;3.97;;;;;;;;;;5055024;28;20208;-75
2023/09/26 01:43:52;;;;;;;4.55;4.32;;;;;;;;;;5054887;28;20196;-75
2023/09/26 01:46:19;;;;;;;4.43;4.13;;;;;;;;;;5054775;28;20225;-75
2023/09/26 01:48:45;;;;;;;4.28;4.07;;;;;;;;;;5054540;28;20220;-75
2023/09/26 01:51:11;;;;;;;4.50;4.20;;;;;;;;;;5054689;28;20665;-75
2023/09/26 01:53:38;;;;;;;4.70;4.40;;;;;;;;;;5054475;28;20232;-75
2023/09/26 01:56:04;;;;;;;4.90;4.57;;;;;;;;;;5054518;28;20221;-75
2023/09/26 01:58:32;;;;;;;4.60;4.40;;;;;;;;;;5054205;28;20205;-75
2023/09/26 02:00:58;;;;;;;5.05;4.35;;;;;;;;;;5054321;28;20561;-75
2023/09/26 02:03:24;;;;;;;4.50;4.20;;;;;;;;;;5054337;28;20425;-75
2023/09/26 02:05:52;;;;;;;4.88;4.57;;;;;;;;;;5054246;28;20225;-75
2023/09/26 02:08:18;;;;;;;4.97;4.60;;;;;;;;;;5054574;28;20201;-75
2023/09/26 02:10:44;;;;;;;4.25;4.05;;;;;;;;;;5054288;28;20204;-75
2023/09/26 02:13:11;;;;;;;4.65;4.13;;;;;;;;;;5053935;28;20229;-75
2023/09/26 02:15:38;;;;;;;4.97;4.57;;;;;;;;;;5053730;28;20239;-75
2023/09/26 02:18:05;;;;;;;4.75;4.40;;;;;;;;;;5053889;28;20207;-76
2023/09/26 02:20:32;;;;;;;4.40;4.07;;;;;;;;;;5053986;28;20201;-75
2023/09/26 02:22:58;;;;;;;4.60;4.20;;;;;;;;;;5053642;28;20669;-75
2023/09/26 02:25:25;;;;;;;4.10;3.80;;;;;;;;;;5054020;28;20239;-75
2023/09/26 02:27:51;;;;;;;4.22;4.00;;;;;;;;;;5053804;28;20300;-75
2023/09/26 02:30:19;;;;;;;4.20;4.00;;;;;;;;;;5053855;28;20212;-75
2023/09/26 02:32:46;;;;;;;4.82;4.40;;;;;;;;;;5053721;28;20205;-75
2023/09/26 02:35:13;;;;;;;4.90;4.60;;;;;;;;;;5053433;28;20232;-75
2023/09/26 02:37:40;;;;;;;4.45;4.15;;;;;;;;;;5053333;28;20292;-75
2023/09/26 02:40:09;;;;;;;4.20;3.90;;;;;;;;;;5053593;28;20587;-76
2023/09/26 02:42:36;;;;;;;5.03;4.13;;;;;;;;;;5053706;28;20208;-75
2023/09/26 02:45:02;;;;;;;5.00;4.47;;;;;;;;;;5053829;28;20217;-75
2023/09/26 02:47:28;;;;;;;4.00;3.80;;;;;;;;;;5053459;28;20204;-75
2023/09/26 02:49:56;;;;;;;5.10;4.60;;;;;;;;;;5053409;28;20304;-75
2023/09/26 02:52:22;;;;;;;4.25;3.95;;;;;;;;;;5053592;28;20212;-75
2023/09/26 02:54:49;;;;;;;5.00;3.70;;;;;;;;;;5053390;28;20220;-75
2023/09/26 02:57:15;;;;;;;4.35;3.83;;;;;;;;;;5054044;28;20212;-75
2023/09/26 02:59:42;;;;;;;5.65;4.30;;;;;;;;;;5053901;28;20254;-75
2023/09/26 03:02:08;;;;;;;4.07;3.88;;;;;;;;;;5053079;28;20692;-75
2023/09/26 03:04:34;;;;;;;3.83;3.50;;;;;;;;;;5053140;28;20219;-75
2023/09/26 03:07:02;;;;;;;4.80;4.28;;;;;;;;;;5053125;28;20274;-75
2023/09/26 03:09:28;;;;;;;6.50;4.15;;;;;;;;;;5052921;28;20208;-75
2023/09/26 03:11:55;;;;;;;4.68;4.38;;;;;;;;;;5052908;28;20572;-75
2023/09/26 03:14:21;;;;;;;4.05;3.75;;;;;;;;;;5052976;28;20220;-75
2023/09/26 03:16:47;;;;;;;4.60;4.20;;;;;;;;;;5052815;28;20223;-75
2023/09/26 03:19:16;;;;;;;4.35;4.03;;;;;;;;;;5052494;28;20292;-75
2023/09/26 03:21:42;;;;;;;5.95;4.43;;;;;;;;;;5053083;28;20197;-75
2023/09/26 03:24:10;;;;;;;4.82;4.45;;;;;;;;;;5052964;28;20205;-75
2023/09/26 03:26:37;;;;;;;6.55;5.68;;;;;;;;;;5051686;28;20220;-76
2023/09/26 03:29:03;;;;;;;4.70;4.30;;;;;;;;;;5052383;28;20201;-75
2023/09/26 03:31:30;;;;;;;6.85;4.55;;;;;;;;;;5052411;28;20565;-75
2023/09/26 03:33:56;;;;;;;5.05;4.70;;;;;;;;;;5052291;28;20670;-75
2023/09/26 03:36:23;;;;;;;5.82;4.45;;;;;;;;;;5052249;28;20229;-75
2023/09/26 03:38:50;;;;;;;4.38;4.07;;;;;;;;;;5052435;28;20208;-75
2023/09/26 03:41:17;;;;;;;4.80;4.40;;;;;;;;;;5052855;28;20302;-75
2023/09/26 03:43:44;;;;;;;4.95;4.18;;;;;;;;;;5052385;28;20692;-75
2023/09/26 03:46:10;;;;;;;6.18;4.43;;;;;;;;;;5052270;28;20221;-75
2023/09/26 03:48:37;;;;;;;4.38;3.97;;;;;;;;;;5052560;28;20280;-75
2023/09/26 03:51:09;;;;;;;4.20;3.90;;;;;;;;;;5052477;28;20212;-75
2023/09/26 03:53:35;;;;;;;3.92;3.67;;;;;;;;;;5052212;28;20196;-75
2023/09/26 03:56:02;;;;;;;4.93;3.85;;;;;;;;;;5052274;28;20229;-75
2023/09/26 03:58:29;;;;;;;4.13;3.70;;;;;;;;;;5051903;28;20216;-75
2023/09/26 04:00:56;;;;;;;3.67;3.38;;;;;;;;;;5051893;28;20201;-75
2023/09/26 04:03:23;;;;;;;5.05;4.10;;;;;;;;;;5052164;28;20224;-75
2023/09/26 04:05:56;;;;;;;4.00;3.67;;;;;;;;;;5051908;28;20225;-75
2023/09/26 04:08:22;;;;;;;5.95;3.70;;;;;;;;;;5051957;28;20201;-75
2023/09/26 04:10:48;;;;;;;4.18;3.97;;;;;;;;;;5051849;28;20595;-75
2023/09/26 04:13:15;;;;;;;5.13;3.80;;;;;;;;;;5051879;28;20205;-75
2023/09/26 04:15:42;;;;;;;3.80;3.53;;;;;;;;;;5052019;28;20595;-75
2023/09/26 04:18:09;;;;;;;4.25;3.95;;;;;;;;;;5052028;28;20204;-75
2023/09/26 04:20:36;;;;;;;4.50;4.10;;;;;;;;;;5051853;28;20628;-75
2023/09/26 04:23:02;;;;;;;4.60;4.22;;;;;;;;;;5051810;28;20204;-75
2023/09/26 04:25:29;;;;;;;4.13;3.83;;;;;;;;;;5051520;28;20709;-75
2023/09/26 04:27:55;;;;;;;8.27;4.05;;;;;;;;;;5051405;28;20212;-75
2023/09/26 04:30:21;;;;;;;5.82;4.07;;;;;;;;;;5051913;28;20205;-75
2023/09/26 04:32:49;;;;;;;7.82;3.88;;;;;;;;;;5051709;28;20201;-75
2023/09/26 04:35:16;;;;;;;4.07;3.78;;;;;;;;;;5051451;28;20579;-75
2023/09/26 04:37:42;;;;;;;6.57;4.03;;;;;;;;;;5051090;28;20205;-75
2023/09/26 04:40:10;;;;;;;6.57;4.18;;;;;;;;;;5051518;28;20208;-75
2023/09/26 04:42:36;;;;;;;6.43;4.43;;;;;;;;;;5051316;28;20200;-75
2023/09/26 04:45:03;;;;;;;5.80;4.53;;;;;;;;;;5051675;28;20221;-75
2023/09/26 04:47:29;;;;;;;5.10;4.20;;;;;;;;;;5051811;28;20240;-75
2023/09/26 04:49:57;;;;;;;4.47;4.10;;;;;;;;;;5051550;28;20201;-75
2023/09/26 04:52:24;;;;;;;6.75;4.60;;;;;;;;;;5050178;28;20228;-75
2023/09/26 04:54:51;;;;;;;6.55;4.60;;;;;;;;;;5051421;28;20693;-68
2023/09/26 04:57:17;;;;;;;9.77;4.55;;;;;;;;;;5051012;28;20212;-68
2023/09/26 04:59:43;;;;;;;9.52;4.82;;;;;;;;;;5051544;28;20227;-68
2023/09/26 05:02:10;;;;;;;4.65;4.32;;;;;;;;;;5051489;28;20597;-67
2023/09/26 05:04:36;;;;;;;9.30;4.75;;;;;;;;;;5051178;28;20562;-67
2023/09/26 05:07:04;;;;;;;6.63;4.30;;;;;;;;;;5051159;28;20221;-67
2023/09/26 05:09:30;;;;;;;6.00;4.30;;;;;;;;;;5050955;28;20197;-67
2023/09/26 05:11:56;;;;;;;5.72;4.75;;;;;;;;;;5051661;28;20201;-67
2023/09/26 05:14:22;;;;;;;4.80;4.50;;;;;;;;;;5051143;28;20225;-67
2023/09/26 05:16:49;;;;;;;5.25;4.68;;;;;;;;;;5051592;28;20248;-67
2023/09/26 05:19:16;;;;;;;5.13;4.75;;;;;;;;;;5051074;28;20205;-67
2023/09/26 05:21:42;;;;;;;4.93;4.45;;;;;;;;;;5051556;28;20209;-67
2023/09/26 05:24:10;;;;;;;4.72;4.53;;;;;;;;;;5050935;28;20205;-67
2023/09/26 05:26:36;;;;;;;5.25;4.90;;;;;;;;;;5051034;28;20573;-67
2023/09/26 05:29:02;;;;;;;4.50;4.20;;;;;;;;;;5051020;28;20236;-67
2023/09/26 05:31:29;;;;;;;5.43;4.95;;;;;;;;;;5050996;28;20205;-67
2023/09/26 05:33:56;;;;;;;8.55;5.07;;;;;;;;;;5050929;28;20205;-68
2023/09/26 05:36:22;;;;;;;5.65;4.88;;;;;;;;;;5050949;28;20290;-68
2023/09/26 05:38:49;;;;;;;6.65;5.72;;;;;;;;;;5051022;28;20293;-68
2023/09/26 05:41:17;;;;;;;5.30;4.90;;;;;;;;;;5051254;28;20208;-68
2023/09/26 05:43:43;;;;;;;6.07;5.47;;;;;;;;;;5051122;28;20205;-68
2023/09/26 05:46:10;;;;;;;5.78;5.13;;;;;;;;;;5050811;28;20217;-68
2023/09/26 05:48:37;;;;;;;5.43;5.00;;;;;;;;;;5050896;28;20205;-68
2023/09/26 05:51:03;;;;;;;6.50;5.13;;;;;;;;;;5054506;28;20201;-68
2023/09/26 05:53:30;;;;;;;6.63;5.55;;;;;;;;;;5054586;28;20229;-68
2023/09/26 05:55:56;;;;;;;5.57;5.18;;;;;;;;;;5054434;28;20302;-68
2023/09/26 05:58:24;;;;;;;6.95;5.40;;;;;;;;;;5054259;28;20677;-68
2023/09/26 06:00:50;;;;;;;6.38;5.90;;;;;;;;;;5054577;28;20263;-68
2023/09/26 06:03:16;;;;;;;13.90;6.70;;;;;;;;;;5054369;28;20212;-68
2023/09/26 06:05:43;;;;;;;11.90;6.30;;;;;;;;;;5053977;28;20213;-68
2023/09/26 06:08:09;;;;;;;15.68;7.00;;;;;;;;;;5054182;28;20700;-68
2023/09/26 06:10:36;;;;;;;14.88;6.70;;;;;;;;;;5054369;28;20225;-68
2023/09/26 06:13:02;;;;;;;14.65;7.25;;;;;;;;;;5054032;28;20585;-68
2023/09/26 06:15:31;;;;;;;29.25;8.35;;;;;;;;;;5053974;28;20233;-68
2023/09/26 06:17:59;;;;;;;18.98;7.63;;;;;;;;;;5053621;28;20266;-68
2023/09/26 06:20:27;;;;;;;19.92;8.23;;;;;;;;;;5053812;28;20580;-68
2023/09/26 06:22:53;;;;;;;18.17;7.75;;;;;;;;;;5053762;28;20204;-68
2023/09/26 06:25:20;;;;;;;18.50;8.65;;;;;;;;;;5053785;28;20690;-68
2023/09/26 06:27:46;;;;;;;12.57;7.47;;;;;;;;;;5053609;28;20228;-68
2023/09/26 06:30:13;;;;;;;22.45;8.35;;;;;;;;;;5053887;28;20205;-68
2023/09/26 06:32:41;;;;;;;20.63;8.25;;;;;;;;;;5053366;28;20201;-69
2023/09/26 06:35:07;;;;;;;17.85;7.85;;;;;;;;;;5043784;28;20715;-68
2023/09/26 06:37:34;;;;;;;13.98;7.82;;;;;;;;;;5047696;28;20209;-70
2023/09/26 06:40:04;;;;;;;12.02;7.60;;;;;;;;;;5047756;28;20701;-68
2023/09/26 06:42:30;;;;;;;13.15;8.27;;;;;;;;;;5047027;28;20212;-68
2023/09/26 06:44:57;;;;;;;15.32;8.27;;;;;;;;;;5043883;28;20213;-68
2023/09/26 06:47:24;;;;;;;14.25;8.02;;;;;;;;;;5044454;28;20695;-68
2023/09/26 06:49:52;;;;;;;15.15;8.02;;;;;;;;;;5044056;28;20546;-68
2023/09/26 06:52:18;;;;;;;20.92;9.30;;;;;;;;;;5044900;28;20205;-68
2023/09/26 06:54:44;;;;;;;18.77;9.60;;;;;;;;;;5044969;28;20236;-68
2023/09/26 06:57:15;;;;;;;25.63;9.63;;;;;;;;;;5044950;28;20721;-68
2023/09/26 06:59:42;;;;;;;20.23;8.82;;;;;;;;;;5045187;28;20530;-68
2023/09/26 07:02:08;;;;;;;23.58;10.13;;;;;;;;;;5044472;28;20209;-69
2023/09/26 07:04:35;;;;;;;16.67;8.45;;;;;;;;;;5045740;28;20213;-69
2023/09/26 07:07:02;;;;;;;13.27;10.00;;;;;;;;;;5045293;28;20428;-70
2023/09/26 07:09:29;;;;;;;11.02;9.82;;;;;;;;;;5045469;28;20580;-73
2023/09/26 07:11:56;;;;;;;10.57;9.57;;;;;;;;;;5045541;28;20228;-71
2023/09/26 07:14:22;;;;;;;11.85;10.02;;;;;;;;;;5045452;28;20209;-71
2023/09/26 07:16:50;;;;;;;13.68;9.40;;;;;;;;;;5045666;28;20233;-71
2023/09/26 07:19:17;;;;;;;17.60;9.95;;;;;;;;;;5044529;28;20215;-70
2023/09/26 07:21:43;;;;;;;10.63;9.50;;;;;;;;;;5046606;28;20209;-69
2023/09/26 07:24:11;;;;;;;17.95;10.55;;;;;;;;;;5045992;28;20205;-70
2023/09/26 07:26:39;;;;;;;15.50;10.68;;;;;;;;;;5045916;28;20597;-69
2023/09/26 07:29:06;;;;;;;17.48;11.02;;;;;;;;;;5045686;28;20232;-69
2023/09/26 07:31:32;;;;;;;15.10;10.75;;;;;;;;;;5045944;28;20208;-70
2023/09/26 07:33:58;;;;;;;13.32;11.60;;;;;;;;;;5045228;28;20294;-70
2023/09/26 07:36:25;;;;;;;12.95;11.65;;;;;;;;;;5045093;28;20328;-70
2023/09/26 07:38:51;;;;;;;14.65;11.40;;;;;;;;;;5046078;28;20251;-70
2023/09/26 07:41:19;;;;;;;16.08;11.80;;;;;;;;;;5045517;28;20681;-70
2023/09/26 07:43:45;;;;;;;16.52;11.18;;;;;;;;;;5045077;28;20212;-70
2023/09/26 07:46:12;;;;;;;13.25;10.10;;;;;;;;;;5045549;28;20217;-68
2023/09/26 07:48:38;;;;;;;11.13;10.13;;;;;;;;;;5044841;28;20209;-70
2023/09/26 07:51:05;;;;;;;11.23;10.13;;;;;;;;;;5045290;28;20216;-70
2023/09/26 07:53:32;;;;;;;11.38;9.60;;;;;;;;;;5044739;28;20244;-70
2023/09/26 07:55:58;;;;;;;10.65;9.55;;;;;;;;;;5044812;28;20906;-69
2023/09/26 07:58:26;;;;;;;9.48;8.68;;;;;;;;;;5044900;28;20216;-71
2023/09/26 08:00:53;;;;;;;9.85;8.85;;;;;;;;;;5044828;28;20212;-69
2023/09/26 08:03:20;;;;;;;12.90;9.25;;;;;;;;;;5044032;28;20281;-68
2023/09/26 08:05:46;;;;;;;12.98;9.30;;;;;;;;;;5044579;28;20232;-68
2023/09/26 08:08:12;;;;;;;12.60;9.77;;;;;;;;;;5044716;28;20215;-72
2023/09/26 08:10:39;;;;;;;12.13;9.02;;;;;;;;;;5044712;28;20225;-70
2023/09/26 08:13:06;;;;;;;12.93;8.75;;;;;;;;;;5043483;28;20200;-69
2023/09/26 08:15:34;;;;;;;17.67;10.43;;;;;;;;;;5044809;28;20225;-69
2023/09/26 08:18:00;;;;;;;10.93;9.60;;;;;;;;;;5044807;28;20223;-70
2023/09/26 08:20:26;;;;;;;9.98;8.98;;;;;;;;;;5044330;28;20235;-69
2023/09/26 08:22:53;;;;;;;13.02;9.63;;;;;;;;;;5044783;28;20220;-70
2023/09/26 08:25:19;;;;;;;10.05;9.18;;;;;;;;;;5044877;28;20423;-73
2023/09/26 08:27:45;;;;;;;10.82;9.50;;;;;;;;;;5044619;28;20529;-70
2023/09/26 08:30:12;;;;;;;10.05;9.05;;;;;;;;;;5044364;28;20740;-71
2023/09/26 08:32:40;;;;;;;11.27;8.43;;;;;;;;;;5044870;28;20705;-70
2023/09/26 08:35:06;;;;;;;10.95;7.88;;;;;;;;;;5044101;28;20228;-72
2023/09/26 08:37:33;;;;;;;9.35;8.40;;;;;;;;;;5044726;28;20208;-71
2023/09/26 08:40:00;;;;;;;10.75;8.85;;;;;;;;;;5044129;28;20208;-69
2023/09/26 08:42:27;;;;;;;14.98;8.82;;;;;;;;;;5044333;28;20216;-71
2023/09/26 08:44:54;;;;;;;12.23;9.48;;;;;;;;;;5044119;28;20236;-71
2023/09/26 08:47:21;;;;;;;10.68;8.55;;;;;;;;;;5044214;28;20578;-70
2023/09/26 08:49:49;;;;;;;11.13;8.35;;;;;;;;;;5045445;28;20205;-70
2023/09/26 08:52:16;;;;;;;8.38;7.60;;;;;;;;;;5047398;28;20668;-69
2023/09/26 08:54:42;;;;;;;9.15;7.88;;;;;;;;;;5044500;28;20585;-70
2023/09/26 08:57:08;;;;;;;11.27;7.35;;;;;;;;;;5044331;28;20224;-70
2023/09/26 08:59:35;;;;;;;8.02;6.43;;;;;;;;;;5044065;28;20219;-70
2023/09/26 09:02:02;;;;;;;11.05;6.47;;;;;;;;;;5043512;28;20213;-70
2023/09/26 09:04:28;;;;;;;7.85;6.97;;;;;;;;;;5043713;28;20220;-69
2023/09/26 09:07:04;;;;;;;7.25;6.68;;;;;;;;;;5044502;28;20225;-69
2023/09/26 09:09:30;;;;;;;11.20;6.65;;;;;;;;;;5043838;28;20646;-68
2023/09/26 09:11:57;;;;;;;10.55;6.82;;;;;;;;;;5044392;28;20212;-71
2023/09/26 09:14:31;;;;;;;7.70;7.15;;;;;;;;;;5044044;28;20209;-70
2023/09/26 09:16:57;;;;;;;7.25;6.43;;;;;;;;;;5037070;28;20237;-69
2023/09/26 09:19:43;;;;;;;6.72;6.22;;;;;;;;;;5043994;28;20209;-70
2023/09/26 09:22:15;;;;;;;10.20;7.15;;;;;;;;;;5043882;28;20213;-69
2023/09/26 09:24:41;;;;;;;8.75;6.47;;;;;;;;;;5046497;28;20749;-71
2023/09/26 09:27:08;;;;;;;7.03;6.40;;;;;;;;;;5047791;28;20201;-69
2023/09/26 09:29:35;;;;;;;9.25;6.10;;;;;;;;;;5048424;28;20209;-67
2023/09/26 09:32:02;;;;;;;6.90;5.90;;;;;;;;;;5048246;28;20236;-68
2023/09/26 09:34:28;;;;;;;12.43;6.32;;;;;;;;;;5047539;28;20301;-69
2023/09/26 09:36:55;;;;;;;14.98;6.78;;;;;;;;;;5047793;28;20252;-68
2023/09/26 09:39:23;;;;;;;6.57;5.97;;;;;;;;;;5047388;28;20223;-68
2023/09/26 09:41:49;;;;;;;10.63;6.60;;;;;;;;;;5048040;28;20652;-68
2023/09/26 09:44:15;;;;;;;11.63;6.43;;;;;;;;;;5047210;28;20222;-68
2023/09/26 09:46:43;;;;;;;8.88;6.18;;;;;;;;;;5047183;28;20228;-70
2023/09/26 09:49:10;;;;;;;10.82;6.25;;;;;;;;;;5047579;28;20674;-68
2023/09/26 09:51:41;;;;;;;10.18;6.32;;;;;;;;;;5047501;28;20290;-68
2023/09/26 09:54:09;;;;;;;8.07;5.82;;;;;;;;;;5047729;28;20209;-69
2023/09/26 09:56:38;;;;;;;6.22;5.63;;;;;;;;;;5046684;28;20213;-68
2023/09/26 09:59:05;;;;;;;5.95;5.40;;;;;;;;;;5046422;28;20229;-68
2023/09/26 10:01:33;;;;;;;6.53;4.78;;;;;;;;;;5047592;28;20244;-68
2023/09/26 10:03:59;;;;;;;6.05;4.65;;;;;;;;;;5047092;28;20212;-68
2023/09/26 10:06:26;;;;;;;6.30;4.57;;;;;;;;;;5047004;28;20231;-68
2023/09/26 10:08:53;;;;;;;5.72;4.05;;;;;;;;;;5047300;28;20213;-68
2023/09/26 10:11:21;;;;;;;6.03;4.47;;;;;;;;;;5046663;28;20762;-68
2023/09/26 10:13:49;;;;;;;4.45;4.07;;;;;;;;;;5046208;28;20212;-68
2023/09/26 10:16:17;;;;;;;4.88;4.43;;;;;;;;;;5047219;28;20232;-68
2023/09/26 10:18:44;;;;;;;6.97;4.20;;;;;;;;;;5046603;28;20209;-68
2023/09/26 10:21:24;;;;;;;4.32;3.92;;;;;;;;;;5046870;28;20231;-68
2023/09/26 10:24:09;;;;;;;4.47;4.07;;;;;;;;;;5047035;28;20219;-68
2023/09/26 10:26:37;;;;;;;4.20;3.65;;;;;;;;;;5046338;28;20235;-68
2023/09/26 10:29:06;;;;;;;4.07;3.67;;;;;;;;;;5046682;28;20212;-68
2023/09/26 10:31:33;;;;;;;5.75;3.30;;;;;;;;;;5046834;28;20224;-68
2023/09/26 10:33:59;;;;;;;7.22;4.05;;;;;;;;;;5045906;28;20618;-68
2023/09/26 10:36:26;;;;;;;5.53;3.70;;;;;;;;;;5045864;28;20231;-68
2023/09/26 10:38:57;;;;;;;5.13;3.03;;;;;;;;;;5045632;28;20213;-68
2023/09/26 10:41:24;;;;;;;5.38;3.63;;;;;;;;;;5046596;28;20212;-68
2023/09/26 10:43:50;;;;;;;3.55;2.90;;;;;;;;;;5046706;28;20208;-68
2023/09/26 10:46:18;;;;;;;4.13;2.67;;;;;;;;;;5046290;28;20248;-68
2023/09/26 10:48:45;;;;;;;3.13;2.83;;;;;;;;;;5045912;28;20649;-68
2023/09/26 10:51:11;;;;;;;3.13;2.53;;;;;;;;;;5045925;28;20292;-68
2023/09/26 10:53:38;;;;;;;2.58;2.47;;;;;;;;;;5046318;28;20598;-68
2023/09/26 10:56:04;;;;;;;4.70;2.30;;;;;;;;;;5045698;28;20225;-68
2023/09/26 10:58:32;;;;;;;2.53;2.17;;;;;;;;;;5045953;28;20292;-68
2023/09/26 11:00:58;;;;;;;8.40;2.42;;;;;;;;;;5045877;28;20215;-68
2023/09/26 11:03:26;;;;;;;2.58;2.00;;;;;;;;;;5045821;28;20236;-68
2023/09/26 11:05:52;;;;;;;5.68;2.10;;;;;;;;;;5045533;28;20332;-68
2023/09/26 11:08:19;;;;;;;2.70;1.98;;;;;;;;;;5045824;28;20689;-68
2023/09/26 11:10:46;;;;;;;3.75;2.20;;;;;;;;;;5045482;28;20224;-68
2023/09/26 11:13:13;;;;;;;2.42;2.08;;;;;;;;;;5045718;28;20281;-68
2023/09/26 11:15:39;;;;;;;4.53;2.60;;;;;;;;;;5045276;28;20241;-68
2023/09/26 11:18:10;;;;;;;2.50;2.28;;;;;;;;;;5046186;28;20225;-68
2023/09/26 11:20:37;;;;;;;2.17;1.75;;;;;;;;;;5045628;28;20231;-68
2023/09/26 11:23:04;;;;;;;3.13;1.70;;;;;;;;;;5046115;28;20208;-68
2023/09/26 11:25:31;;;;;;;2.78;2.05;;;;;;;;;;5045415;28;20274;-68
2023/09/26 11:27:57;;;;;;;3.25;1.70;;;;;;;;;;5044984;28;20205;-68
2023/09/26 11:30:24;;;;;;;3.00;2.17;;;;;;;;;;5045904;28;20213;-68
2023/09/26 11:32:53;;;;;;;1.98;1.80;;;;;;;;;;5045814;28;20220;-68
2023/09/26 11:35:20;;;;;;;1.70;1.60;;;;;;;;;;5045175;28;20255;-68
2023/09/26 11:37:50;;;;;;;2.63;1.70;;;;;;;;;;5045366;28;20696;-68
2023/09/26 11:40:21;;;;;;;2.75;1.85;;;;;;;;;;5045634;28;20212;-68
2023/09/26 11:42:47;;;;;;;2.45;2.00;;;;;;;;;;5046867;28;20213;-69
2023/09/26 11:45:19;;;;;;;4.00;1.80;;;;;;;;;;5045530;28;20223;-69
2023/09/26 11:47:46;;;;;;;1.83;1.73;;;;;;;;;;5044498;28;20209;-68
2023/09/26 11:50:12;;;;;;;1.75;1.60;;;;;;;;;;5045506;28;20208;-68
2023/09/26 11:52:39;;;;;;;2.05;1.30;;;;;;;;;;5045505;28;20747;-68
2023/09/26 11:55:08;;;;;;;4.82;1.48;;;;;;;;;;5044339;28;20315;-68
2023/09/26 11:57:34;;;;;;;2.50;1.40;;;;;;;;;;5044706;28;20224;-68
2023/09/26 12:00:01;;;;;;;1.60;1.50;;;;;;;;;;5045026;28;20703;-68
2023/09/26 12:02:27;;;;;;;1.70;1.60;;;;;;;;;;5044859;28;20638;-68
2023/09/26 12:04:54;;;;;;;2.15;1.40;;;;;;;;;;5044670;28;20212;-69
2023/09/26 12:07:20;;;;;;;2.20;1.40;;;;;;;;;;5045006;28;20696;-68
2023/09/26 12:09:47;;;;;;;4.07;1.40;;;;;;;;;;5044246;28;20209;-68
2023/09/26 12:12:14;;;;;;;2.97;1.40;;;;;;;;;;5044455;28;20216;-69
2023/09/26 12:14:45;;;;;;;1.40;1.40;;;;;;;;;;5043941;28;20204;-69
2023/09/26 12:17:11;;;;;;;1.65;1.40;;;;;;;;;;5044997;28;20713;-69
2023/09/26 12:19:38;;;;;;;2.38;0.90;;;;;;;;;;5044136;28;20212;-69
2023/09/26 12:22:05;;;;;;;1.05;1.05;;;;;;;;;;5044999;28;20304;-70
2023/09/26 12:24:31;;;;;;;1.75;1.30;;;;;;;;;;5044735;28;20211;-68
2023/09/26 12:26:58;;;;;;;1.48;1.23;;;;;;;;;;5044488;28;20212;-72
2023/09/26 12:29:25;;;;;;;1.20;1.20;;;;;;;;;;5044182;28;20210;-70
2023/09/26 12:31:52;;;;;;;1.58;1.10;;;;;;;;;;5044319;28;20213;-70
2023/09/26 12:34:18;;;;;;;1.65;1.10;;;;;;;;;;5044640;28;20262;-69
2023/09/26 12:36:44;;;;;;;1.40;1.20;;;;;;;;;;5044494;28;20232;-68
2023/09/26 12:39:11;;;;;;;1.35;1.10;;;;;;;;;;5043889;28;20219;-68
2023/09/26 12:41:39;;;;;;;1.75;0.88;;;;;;;;;;5044251;28;20216;-70
2023/09/26 12:44:05;;;;;;;2.25;1.15;;;;;;;;;;5043946;28;20266;-70
2023/09/26 12:46:33;;;;;;;1.92;0.95;;;;;;;;;;5044073;28;20220;-70
2023/09/26 12:48:59;;;;;;;1.23;1.00;;;;;;;;;;5043846;28;20208;-71
2023/09/26 12:51:28;;;;;;;2.72;1.30;;;;;;;;;;5043867;28;20211;-71
2023/09/26 12:53:54;;;;;;;3.90;1.30;;;;;;;;;;5043833;28;20219;-71
2023/09/26 12:56:21;;;;;;;3.60;1.05;;;;;;;;;;5043369;28;20311;-72
2023/09/26 12:58:47;;;;;;;2.20;0.70;;;;;;;;;;5046523;28;20585;-71
2023/09/26 13:01:13;;;;;;;1.42;0.88;;;;;;;;;;5048037;28;20247;-69
2023/09/26 13:03:41;;;;;;;1.23;0.98;;;;;;;;;;5048747;28;20212;-69
2023/09/26 13:06:07;;;;;;;2.83;1.13;;;;;;;;;;5048214;28;20228;-68
2023/09/26 13:08:34;;;;;;;1.77;1.08;;;;;;;;;;5047988;28;20695;-69
2023/09/26 13:11:00;;;;;;;2.72;1.00;;;;;;;;;;5048319;28;20220;-71
2023/09/26 13:13:26;;;;;;;2.05;0.70;;;;;;;;;;5048208;28;20205;-71
2023/09/26 13:15:52;;;;;;;0.90;0.90;;;;;;;;;;5047510;28;20228;-68
2023/09/26 13:18:19;;;;;;;3.25;1.10;;;;;;;;;;5047581;28;20267;-73
2023/09/26 13:20:46;;;;;;;0.90;0.90;;;;;;;;;;5047103;28;20813;-70
2023/09/26 13:23:13;;;;;;;1.08;0.88;;;;;;;;;;5047839;28;20220;-70
2023/09/26 13:25:39;;;;;;;1.90;0.80;;;;;;;;;;5047354;28;20228;-70
2023/09/26 13:28:05;;;;;;;7.40;0.80;;;;;;;;;;5047464;28;20212;-71
2023/09/26 13:30:32;;;;;;;0.90;0.90;;;;;;;;;;5047818;28;20212;-70
2023/09/26 13:32:58;;;;;;;0.88;0.80;;;;;;;;;;5047829;28;20672;-71
2023/09/26 13:35:27;;;;;;;3.10;0.98;;;;;;;;;;5048167;28;20235;-71
2023/09/26 13:37:55;;;;;;;1.10;1.10;;;;;;;;;;5047162;28;20224;-73
2023/09/26 13:40:21;;;;;;;0.90;0.90;;;;;;;;;;5047192;28;20212;-71
2023/09/26 13:42:48;;;;;;;1.67;0.77;;;;;;;;;;5047924;28;20213;-71
2023/09/26 13:45:14;;;;;;;1.23;0.70;;;;;;;;;;5047591;28;20250;-69
2023/09/26 13:47:41;;;;;;;0.77;0.77;;;;;;;;;;5047555;28;20207;-69
2023/09/26 13:50:07;;;;;;;1.92;0.90;;;;;;;;;;5047465;28;20205;-69
2023/09/26 13:52:34;;;;;;;2.42;1.02;;;;;;;;;;5047421;28;20224;-69
2023/09/26 13:55:01;;;;;;;3.53;1.00;;;;;;;;;;5047469;28;20224;-77
2023/09/26 13:57:40;;;;;;;0.70;0.70;;;;;;;;;;5052825;28;20625;-77
2023/09/26 14:00:08;;;;;;;0.70;0.70;;;;;;;;;;5037519;28;20594;-77
2023/09/26 14:02:35;;;;;;;1.60;0.88;;;;;;;;;;5050750;28;20295;-77
2023/09/26 14:05:03;;;;;;;2.05;0.73;;;;;;;;;;5051163;28;20231;-77
2023/09/26 14:07:31;;;;;;;1.08;0.80;;;;;;;;;;5049292;28;20200;-77
2023/09/26 14:09:57;;;;;;;2.58;0.82;;;;;;;;;;5049416;28;20327;-77
2023/09/26 14:12:25;;;;;;;2.58;0.73;;;;;;;;;;5050796;28;20204;-78
2023/09/26 14:14:51;;;;;;;0.90;0.70;;;;;;;;;;5049827;28;20278;-78
2023/09/26 14:17:18;;;;;;;0.77;0.55;;;;;;;;;;5050269;28;20224;-77
2023/09/26 14:19:44;;;;;;;0.70;0.70;;;;;;;;;;5049939;28;20212;-77
2023/09/26 14:22:11;;;;;;;0.70;0.70;;;;;;;;;;5050384;28;20490;-77
2023/09/26 14:24:37;;;;;;;1.13;0.57;;;;;;;;;;5050011;28;20208;-77
2023/09/26 14:27:03;;;;;;;0.80;0.80;;;;;;;;;;5049692;28;20216;-77
2023/09/26 14:29:32;;;;;;;0.90;0.77;;;;;;;;;;5058953;28;20585;-75
2023/09/26 14:31:59;;;;;;;0.80;0.80;;;;;;;;;;5057290;28;20204;-78
2023/09/26 14:34:25;;;;;;;0.63;0.63;;;;;;;;;;5051045;28;20219;-77
2023/09/26 14:36:51;;;;;;;2.65;0.77;;;;;;;;;;5049700;28;20728;-77
2023/09/26 14:39:18;;;;;;;2.22;1.00;;;;;;;;;;5050235;28;20516;-78